createdAt,value
2024-01-27T00:02:14.698Z,35.95
2024-01-27T00:04:41.937Z,30.63
2024-01-27T00:07:09.417Z,31.52
2024-01-27T00:09:36.640Z,29.58
2024-01-27T00:12:03.973Z,31.05
2024-01-27T00:14:31.265Z,32.47
2024-01-27T00:16:58.365Z,29.85
2024-01-27T00:19:25.602Z,29.10
2024-01-27T00:21:52.766Z,31.13
2024-01-27T00:24:19.967Z,27.30
2024-01-27T00:26:47.339Z,26.92
2024-01-27T00:29:14.663Z,33.75
2024-01-27T00:31:41.788Z,24.80
2024-01-27T00:34:08.997Z,33.67
2024-01-27T00:36:38.169Z,30.50
2024-01-27T00:39:06.055Z,29.92
2024-01-27T00:41:33.239Z,29.42
2024-01-27T00:44:00.429Z,33.85
2024-01-27T00:46:27.670Z,27.98
2024-01-27T00:48:55.213Z,26.98
2024-01-27T00:51:22.485Z,25.25
2024-01-27T00:53:49.964Z,17.10
2024-01-27T00:56:17.219Z,10.05
2024-01-27T00:58:44.447Z,3.38
2024-01-27T01:01:11.942Z,2.92
2024-01-27T01:03:39.224Z,2.30
2024-01-27T01:06:06.547Z,1.75
2024-01-27T01:08:33.976Z,2.63
2024-01-27T01:11:01.115Z,3.08
2024-01-27T01:13:28.289Z,6.93
2024-01-27T01:15:55.517Z,1.08
2024-01-27T01:18:22.818Z,0.70
2024-01-27T01:20:50.239Z,4.47
2024-01-27T01:23:17.424Z,1.30
2024-01-27T01:25:45.471Z,0.85
2024-01-27T01:28:12.723Z,1.50
2024-01-27T01:30:39.992Z,1.73
2024-01-27T01:33:07.409Z,0.60
2024-01-27T01:35:34.691Z,1.20
2024-01-27T01:38:01.996Z,0.52
2024-01-27T01:40:29.209Z,0.98
2024-01-27T01:42:56.560Z,0.70
2024-01-27T01:45:23.698Z,1.23
2024-01-27T01:47:51.108Z,3.25
2024-01-27T01:50:19.364Z,0.47
2024-01-27T01:52:49.971Z,0.85
2024-01-27T01:55:18.084Z,0.43
2024-01-27T01:57:45.760Z,3.92
2024-01-27T02:00:15.110Z,2.92
2024-01-27T02:02:45.844Z,1.88
2024-01-27T02:05:14.402Z,0.88
2024-01-27T02:07:41.773Z,0.75
2024-01-27T02:10:16.938Z,0.60
2024-01-27T02:12:45.384Z,0.75
2024-01-27T02:15:14.625Z,0.57
2024-01-27T02:17:43.024Z,0.65
2024-01-27T02:20:10.889Z,1.08
2024-01-27T02:22:38.251Z,0.90
2024-01-27T02:25:05.881Z,1.90
2024-01-27T02:27:33.185Z,1.35
2024-01-27T02:30:00.614Z,3.00
2024-01-27T02:32:27.813Z,1.10
2024-01-27T02:34:54.978Z,1.08
2024-01-27T02:37:22.868Z,1.27
2024-01-27T02:39:50.029Z,1.95
2024-01-27T02:42:17.213Z,0.73
2024-01-27T02:44:44.390Z,0.40
2024-01-27T02:47:11.604Z,1.17
2024-01-27T02:49:38.800Z,1.27
2024-01-27T02:52:06.191Z,0.40
2024-01-27T02:54:33.475Z,1.13
2024-01-27T02:57:00.663Z,1.13
2024-01-27T02:59:28.019Z,2.15
2024-01-27T03:01:55.191Z,0.50
2024-01-27T03:04:23.330Z,1.17
2024-01-27T03:06:50.623Z,1.80
2024-01-27T03:09:17.904Z,1.13
2024-01-27T03:11:45.398Z,0.85
2024-01-27T03:14:12.667Z,0.95
2024-01-27T03:16:39.844Z,1.38
2024-01-27T03:19:07.924Z,1.13
2024-01-27T03:21:35.290Z,0.30
2024-01-27T03:24:02.834Z,2.60
2024-01-27T03:26:30.053Z,3.65
2024-01-27T03:28:57.302Z,1.75
2024-01-27T03:31:24.533Z,1.10
2024-01-27T03:33:51.779Z,0.95
2024-01-27T03:36:18.953Z,2.05
2024-01-27T03:38:46.345Z,0.80
2024-01-27T03:41:13.465Z,0.47
2024-01-27T03:43:40.641Z,1.33
2024-01-27T03:46:07.833Z,2.80
2024-01-27T03:48:36.596Z,1.65
2024-01-27T03:51:04.022Z,2.25
2024-01-27T03:53:31.183Z,1.35
2024-01-27T03:56:00.812Z,2.20
2024-01-27T03:58:28.250Z,1.15
2024-01-27T04:00:55.532Z,0.70
2024-01-27T04:03:22.866Z,1.55
2024-01-27T04:05:50.273Z,1.30
2024-01-27T04:08:17.649Z,1.38
2024-01-27T04:10:44.921Z,1.60
2024-01-27T04:13:12.076Z,1.70
2024-01-27T04:15:40.116Z,2.60
2024-01-27T04:18:11.011Z,3.78
2024-01-27T04:20:38.513Z,4.55
2024-01-27T04:23:05.888Z,4.32
2024-01-27T04:25:33.095Z,3.40
2024-01-27T04:28:00.242Z,2.47
2024-01-27T04:30:27.428Z,2.38
2024-01-27T04:32:54.747Z,5.45
2024-01-27T04:35:21.924Z,2.50
2024-01-27T04:37:49.101Z,0.98
2024-01-27T04:40:16.743Z,1.92
2024-01-27T04:42:44.016Z,0.85
2024-01-27T04:45:11.279Z,1.05
2024-01-27T04:47:38.668Z,2.17
2024-01-27T04:50:06.186Z,3.70
2024-01-27T04:52:33.534Z,3.42
2024-01-27T04:55:01.087Z,1.45
2024-01-27T04:57:28.492Z,1.48
2024-01-27T04:59:56.077Z,1.90
2024-01-27T05:02:23.255Z,2.35
2024-01-27T05:04:50.881Z,2.35
2024-01-27T05:07:18.056Z,2.53
2024-01-27T05:09:45.310Z,1.85
2024-01-27T05:12:12.542Z,1.52
2024-01-27T05:14:45.744Z,5.32
2024-01-27T05:17:12.913Z,5.25
2024-01-27T05:19:40.244Z,7.07
2024-01-27T05:22:07.779Z,6.25
2024-01-27T05:24:35.171Z,6.53
2024-01-27T05:27:02.613Z,6.45
2024-01-27T05:29:30.071Z,8.65
2024-01-27T05:31:57.242Z,7.32
2024-01-27T05:34:24.553Z,7.68
2024-01-27T05:36:51.689Z,8.02
2024-01-27T05:39:18.882Z,5.68
2024-01-27T05:41:46.086Z,6.78
2024-01-27T05:44:13.415Z,7.40
2024-01-27T05:46:40.727Z,8.18
2024-01-27T05:49:08.036Z,10.38
2024-01-27T05:51:35.385Z,4.15
2024-01-27T05:54:03.549Z,9.60
2024-01-27T05:56:30.828Z,5.22
2024-01-27T05:58:57.989Z,6.68
2024-01-27T06:01:25.277Z,10.57
2024-01-27T06:03:52.857Z,6.82
2024-01-27T06:06:20.298Z,7.38
2024-01-27T06:08:47.574Z,8.45
2024-01-27T06:11:14.862Z,7.40
2024-01-27T06:13:42.176Z,8.32
2024-01-27T06:16:10.811Z,7.18
2024-01-27T06:18:38.693Z,6.32
2024-01-27T06:21:07.269Z,9.30
2024-01-27T06:23:36.577Z,6.80
2024-01-27T06:26:11.469Z,8.65
2024-01-27T06:28:38.622Z,7.50
2024-01-27T06:31:06.018Z,8.98
2024-01-27T06:33:33.609Z,9.45
2024-01-27T06:36:00.904Z,11.27
2024-01-27T06:38:28.660Z,10.23
2024-01-27T06:40:55.888Z,19.33
2024-01-27T06:43:22.996Z,18.73
2024-01-27T06:45:50.294Z,14.15
2024-01-27T06:48:17.631Z,14.07
2024-01-27T06:50:44.855Z,13.15
2024-01-27T06:53:12.148Z,13.85
2024-01-27T06:55:42.648Z,11.57
2024-01-27T06:58:11.388Z,11.30
2024-01-27T07:00:38.923Z,9.85
2024-01-27T07:03:06.633Z,9.82
2024-01-27T07:05:39.871Z,9.10
2024-01-27T07:08:08.644Z,10.30
2024-01-27T07:10:36.409Z,7.75
2024-01-27T07:13:03.937Z,10.90
2024-01-27T07:15:31.226Z,14.15
2024-01-27T07:17:58.531Z,9.00
2024-01-27T07:20:25.893Z,8.75
2024-01-27T07:22:53.283Z,15.07
2024-01-27T07:25:20.431Z,10.45
2024-01-27T07:27:48.304Z,13.20
2024-01-27T07:30:17.251Z,11.40
2024-01-27T07:32:45.458Z,10.30
2024-01-27T07:35:12.804Z,13.10
2024-01-27T07:37:40.156Z,12.25
2024-01-27T07:40:07.770Z,14.20
2024-01-27T07:42:34.921Z,13.27
2024-01-27T07:45:02.459Z,11.40
2024-01-27T07:47:29.754Z,13.65
2024-01-27T07:49:56.982Z,11.82
2024-01-27T07:52:24.316Z,9.68
2024-01-27T07:54:51.495Z,12.10
2024-01-27T07:57:18.644Z,9.82
2024-01-27T07:59:45.886Z,8.13
2024-01-27T08:02:13.266Z,10.57
2024-01-27T08:04:40.534Z,8.77
2024-01-27T08:07:11.243Z,9.20
2024-01-27T08:09:39.981Z,9.00
2024-01-27T08:12:08.167Z,10.05
2024-01-27T08:14:36.817Z,11.07
2024-01-27T08:17:05.260Z,8.65
2024-01-27T08:19:32.965Z,9.10
2024-01-27T08:22:00.289Z,9.60
2024-01-27T08:24:27.690Z,8.43
2024-01-27T08:26:54.953Z,9.10
2024-01-27T08:29:22.097Z,8.00
2024-01-27T08:31:49.458Z,9.10
2024-01-27T08:34:17.325Z,7.80
2024-01-27T08:36:44.753Z,10.52
2024-01-27T08:39:13.742Z,12.82
2024-01-27T08:41:41.265Z,12.00
2024-01-27T08:44:08.414Z,7.22
2024-01-27T08:46:35.608Z,7.00
2024-01-27T08:49:02.871Z,8.45
2024-01-27T08:51:30.303Z,11.80
2024-01-27T08:53:57.695Z,8.65
2024-01-27T08:56:24.819Z,10.70
2024-01-27T08:58:53.745Z,12.77
2024-01-27T09:01:21.651Z,11.88
2024-01-27T09:03:48.962Z,12.13
2024-01-27T09:06:16.754Z,12.57
2024-01-27T09:08:43.972Z,9.27
2024-01-27T09:11:11.133Z,9.02
2024-01-27T09:13:38.364Z,6.32
2024-01-27T09:16:05.589Z,9.38
2024-01-27T09:18:32.955Z,11.88
2024-01-27T09:21:00.286Z,8.52
2024-01-27T09:23:27.473Z,8.80
2024-01-27T09:25:54.550Z,10.52
2024-01-27T09:28:21.763Z,11.13
2024-01-27T09:30:49.006Z,9.98
2024-01-27T09:33:18.751Z,7.13
2024-01-27T09:35:46.067Z,8.07
2024-01-27T09:38:15.492Z,9.73
2024-01-27T09:40:42.990Z,8.38
2024-01-27T09:43:15.116Z,7.53
2024-01-27T09:45:42.962Z,6.75
2024-01-27T09:48:13.689Z,7.28
2024-01-27T09:50:43.056Z,7.07
2024-01-27T09:53:11.270Z,11.95
2024-01-27T09:55:38.544Z,8.43
2024-01-27T09:58:06.694Z,6.15
2024-01-27T10:00:36.657Z,5.75
2024-01-27T10:03:07.315Z,5.80
2024-01-27T10:05:35.254Z,6.70
2024-01-27T10:08:02.456Z,7.57
2024-01-27T10:10:29.548Z,8.45
2024-01-27T10:12:59.978Z,4.07
2024-01-27T10:15:28.962Z,3.97
2024-01-27T10:18:14.312Z,4.90
2024-01-27T10:20:41.677Z,6.50
2024-01-27T10:23:13.517Z,6.07
2024-01-27T10:25:42.086Z,5.32
2024-01-27T10:28:10.163Z,6.90
2024-01-27T10:30:38.401Z,4.97
2024-01-27T10:33:05.939Z,8.20
2024-01-27T10:35:33.159Z,10.52
2024-01-27T10:38:00.508Z,7.05
2024-01-27T10:40:28.278Z,5.80
2024-01-27T10:43:11.214Z,6.07
2024-01-27T10:45:40.372Z,7.53
2024-01-27T10:48:10.862Z,5.47
2024-01-27T10:50:43.350Z,4.18
2024-01-27T10:53:32.277Z,9.07
2024-01-27T10:56:00.272Z,3.72
2024-01-27T10:58:29.383Z,4.72
2024-01-27T11:00:58.017Z,3.30
2024-01-27T11:03:26.910Z,5.68
2024-01-27T11:05:56.176Z,6.25
2024-01-27T11:08:29.518Z,4.40
2024-01-27T11:10:57.597Z,3.65
2024-01-27T11:13:26.203Z,4.47
2024-01-27T11:15:55.688Z,5.25
2024-01-27T11:18:23.391Z,4.75
2024-01-27T11:20:55.100Z,4.53
2024-01-27T11:23:32.097Z,5.57
2024-01-27T11:26:07.563Z,3.47
2024-01-27T11:28:34.924Z,5.40
2024-01-27T11:31:10.388Z,4.60
2024-01-27T11:33:46.715Z,3.17
2024-01-27T11:36:22.586Z,2.42
2024-01-27T11:38:50.966Z,3.25
2024-01-27T11:41:27.033Z,2.80
2024-01-27T11:43:56.131Z,4.20
2024-01-27T11:46:24.170Z,2.83
2024-01-27T11:48:51.700Z,3.15
2024-01-27T11:51:20.846Z,4.15
2024-01-27T11:53:48.349Z,3.22
2024-01-27T11:56:15.706Z,3.85
2024-01-27T11:58:51.419Z,3.70
2024-01-27T12:01:18.951Z,2.00
2024-01-27T12:03:47.305Z,5.25
2024-01-27T12:06:15.662Z,4.90
2024-01-27T12:08:51.583Z,1.85
2024-01-27T12:11:22.232Z,2.40
2024-01-27T12:13:56.013Z,3.92
2024-01-27T12:16:24.019Z,4.13
2024-01-27T12:18:56.060Z,2.55
2024-01-27T12:21:25.158Z,2.25
2024-01-27T12:23:53.337Z,4.85
2024-01-27T12:26:23.545Z,3.78
2024-01-27T12:28:50.873Z,2.30
2024-01-27T12:31:20.017Z,1.75
2024-01-27T12:34:03.364Z,1.77
2024-01-27T12:36:30.775Z,1.85
2024-01-27T12:39:01.463Z,2.55
2024-01-27T12:41:30.519Z,1.85
2024-01-27T12:43:57.956Z,2.17
2024-01-27T12:46:25.411Z,1.60
2024-01-27T12:48:52.979Z,1.35
2024-01-27T12:51:20.789Z,2.70
2024-01-27T12:53:48.471Z,3.65
2024-01-27T12:56:16.723Z,1.42
2024-01-27T12:58:44.408Z,2.60
2024-01-27T13:01:11.848Z,0.95
2024-01-27T13:03:41.781Z,2.85
2024-01-27T13:06:12.234Z,1.67
2024-01-27T13:08:39.912Z,0.55
2024-01-27T13:11:06.931Z,1.20
2024-01-27T13:13:34.252Z,2.13
2024-01-27T13:16:01.660Z,1.65
2024-01-27T13:18:28.980Z,3.55
2024-01-27T13:20:56.303Z,1.35
2024-01-27T13:23:23.662Z,1.40
2024-01-27T13:26:02.604Z,2.33
2024-01-27T13:28:38.590Z,2.15
2024-01-27T13:31:06.380Z,2.15
2024-01-27T13:33:35.483Z,0.88
2024-01-27T13:36:03.370Z,2.10
2024-01-27T13:38:30.614Z,2.47
2024-01-27T13:40:57.814Z,1.60
2024-01-27T13:43:25.017Z,1.40
2024-01-27T13:45:52.678Z,3.28
2024-01-27T13:48:20.414Z,0.98
2024-01-27T13:50:47.931Z,3.85
2024-01-27T13:53:15.223Z,0.82
2024-01-27T13:55:44.052Z,2.15
2024-01-27T13:58:11.720Z,1.92
2024-01-27T14:00:39.354Z,1.17
2024-01-27T14:03:06.789Z,1.20
2024-01-27T14:05:34.076Z,0.90
2024-01-27T14:08:01.432Z,5.65
2024-01-27T14:10:28.776Z,1.10
2024-01-27T14:12:55.949Z,1.58
2024-01-27T14:15:22.984Z,3.03
2024-01-27T14:17:50.504Z,3.45
2024-01-27T14:20:20.775Z,3.47
2024-01-27T14:22:48.012Z,2.40
2024-01-27T14:25:15.753Z,2.08
2024-01-27T14:27:43.861Z,1.73
2024-01-27T14:30:12.049Z,1.55
2024-01-27T14:32:40.110Z,1.17
2024-01-27T14:35:07.897Z,5.95
2024-01-27T14:37:35.316Z,7.35
2024-01-27T14:40:02.574Z,1.35
2024-01-27T14:42:31.987Z,2.17
2024-01-27T14:45:00.695Z,1.98
2024-01-27T14:47:28.196Z,1.35
2024-01-27T14:49:55.545Z,2.05
2024-01-27T14:52:24.117Z,1.33
2024-01-27T14:54:51.376Z,3.42
2024-01-27T14:57:18.537Z,1.02
2024-01-27T14:59:51.083Z,2.28
2024-01-27T15:02:21.493Z,3.60
2024-01-27T15:04:50.964Z,1.13
2024-01-27T15:07:19.092Z,2.17
2024-01-27T15:09:46.279Z,0.70
2024-01-27T15:12:13.883Z,1.20
2024-01-27T15:14:40.970Z,1.60
2024-01-27T15:17:08.592Z,1.55
2024-01-27T15:19:40.714Z,1.42
2024-01-27T15:22:10.104Z,1.35
2024-01-27T15:24:39.398Z,1.83
2024-01-27T15:27:11.339Z,7.13
2024-01-27T15:29:39.672Z,6.00
2024-01-27T15:32:08.474Z,2.65
2024-01-27T15:34:35.817Z,0.90
2024-01-27T15:37:03.365Z,1.23
2024-01-27T15:39:30.796Z,1.30
2024-01-27T15:41:59.280Z,1.67
2024-01-27T15:44:26.516Z,0.60
2024-01-27T15:46:53.718Z,1.25
2024-01-27T15:49:22.074Z,1.42
2024-01-27T15:51:49.239Z,0.50
2024-01-27T15:54:19.401Z,3.38
2024-01-27T15:56:48.005Z,1.13
2024-01-27T15:59:15.672Z,3.42
2024-01-27T16:01:43.456Z,2.25
2024-01-27T16:04:10.777Z,2.25
2024-01-27T16:06:38.397Z,1.40
2024-01-27T16:09:05.655Z,2.17
2024-01-27T16:11:33.065Z,1.63
2024-01-27T16:14:00.395Z,3.00
2024-01-27T16:16:30.087Z,2.20
2024-01-27T16:18:57.610Z,1.33
2024-01-27T16:21:26.115Z,1.95
2024-01-27T16:23:53.415Z,1.33
2024-01-27T16:26:20.681Z,3.55
2024-01-27T16:28:48.452Z,4.40
2024-01-27T16:31:16.006Z,1.80
2024-01-27T16:33:43.511Z,1.75
2024-01-27T16:36:11.070Z,1.48
2024-01-27T16:38:38.230Z,2.92
2024-01-27T16:41:05.398Z,3.75
2024-01-27T16:43:32.601Z,1.58
2024-01-27T16:46:00.175Z,3.97
2024-01-27T16:48:27.421Z,1.50
2024-01-27T16:50:54.687Z,2.20
2024-01-27T16:53:21.954Z,3.55
2024-01-27T16:55:49.072Z,3.67
2024-01-27T16:58:16.302Z,5.60
2024-01-27T17:00:43.777Z,4.63
2024-01-27T17:03:11.120Z,4.78
2024-01-27T17:05:38.337Z,4.00
2024-01-27T17:08:05.900Z,6.85
2024-01-27T17:10:33.105Z,5.88
2024-01-27T17:13:00.361Z,4.13
2024-01-27T17:15:27.727Z,3.67
2024-01-27T17:17:55.050Z,6.35
2024-01-27T17:20:23.322Z,9.63
2024-01-27T17:22:50.778Z,6.65
2024-01-27T17:25:18.359Z,5.75
2024-01-27T17:27:45.600Z,5.63
2024-01-27T17:30:14.760Z,9.23
2024-01-27T17:32:44.307Z,14.27
2024-01-27T17:35:11.770Z,8.20
2024-01-27T17:37:38.920Z,11.13
2024-01-27T17:40:07.630Z,7.63
2024-01-27T17:42:37.198Z,7.85
2024-01-27T17:45:06.565Z,6.68
2024-01-27T17:47:37.431Z,7.57
2024-01-27T17:50:06.776Z,7.35
2024-01-27T17:52:34.281Z,11.45
2024-01-27T17:55:01.409Z,12.90
2024-01-27T17:57:30.332Z,10.95
2024-01-27T17:59:57.478Z,13.20
2024-01-27T18:02:27.407Z,8.75
2024-01-27T18:04:55.573Z,10.82
2024-01-27T18:07:23.076Z,9.32
2024-01-27T18:09:50.365Z,9.20
2024-01-27T18:12:17.703Z,6.57
2024-01-27T18:14:44.871Z,6.15
2024-01-27T18:17:12.051Z,6.93
2024-01-27T18:19:39.320Z,4.65
2024-01-27T18:22:07.922Z,5.38
2024-01-27T18:24:35.275Z,3.95
2024-01-27T18:27:03.210Z,2.13
2024-01-27T18:29:30.648Z,5.97
2024-01-27T18:31:59.844Z,2.42
2024-01-27T18:34:27.363Z,2.42
2024-01-27T18:36:54.531Z,2.95
2024-01-27T18:39:21.729Z,2.40
2024-01-27T18:41:49.075Z,2.08
2024-01-27T18:44:18.229Z,6.90
2024-01-27T18:46:45.418Z,5.90
2024-01-27T18:49:15.178Z,5.72
2024-01-27T18:51:44.136Z,4.30
2024-01-27T18:54:15.865Z,5.03
2024-01-27T18:56:43.033Z,6.57
2024-01-27T18:59:10.219Z,6.70
2024-01-27T19:01:37.981Z,7.88
2024-01-27T19:04:05.252Z,8.93
2024-01-27T19:06:33.060Z,10.35
2024-01-27T19:09:01.405Z,12.23
2024-01-27T19:11:31.190Z,11.55
2024-01-27T19:13:58.710Z,16.58
2024-01-27T19:16:25.813Z,15.98
2024-01-27T19:18:53.274Z,15.45
2024-01-27T19:21:21.106Z,13.90
2024-01-27T19:23:48.536Z,15.30
2024-01-27T19:26:15.854Z,11.43
2024-01-27T19:28:43.122Z,12.02
2024-01-27T19:31:10.387Z,10.85
2024-01-27T19:33:37.646Z,9.57
2024-01-27T19:36:05.194Z,17.88
2024-01-27T19:38:34.101Z,16.05
2024-01-27T19:41:11.709Z,7.65
2024-01-27T19:43:47.440Z,3.47
2024-01-27T19:46:15.066Z,6.95
2024-01-27T19:48:43.017Z,4.63
2024-01-27T19:51:10.750Z,5.28
2024-01-27T19:53:37.972Z,9.57
2024-01-27T19:56:09.499Z,13.68
2024-01-27T19:58:37.075Z,10.63
2024-01-27T20:01:04.567Z,10.02
2024-01-27T20:03:31.985Z,8.65
2024-01-27T20:05:59.683Z,7.40
2024-01-27T20:08:26.867Z,11.55
2024-01-27T20:10:54.027Z,7.53
2024-01-27T20:13:21.167Z,10.07
2024-01-27T20:15:48.625Z,10.60
2024-01-27T20:18:15.954Z,11.55
2024-01-27T20:20:43.117Z,9.90
2024-01-27T20:23:10.411Z,8.30
2024-01-27T20:25:37.660Z,11.02
2024-01-27T20:28:05.866Z,13.75
2024-01-27T20:30:34.609Z,10.80
2024-01-27T20:33:02.030Z,15.90
2024-01-27T20:35:30.410Z,10.48
2024-01-27T20:37:57.784Z,9.52
2024-01-27T20:40:25.955Z,10.27
2024-01-27T20:42:53.313Z,11.43
2024-01-27T20:45:20.607Z,11.63
2024-01-27T20:47:50.602Z,11.35
2024-01-27T20:50:18.055Z,12.65
2024-01-27T20:52:45.389Z,14.10
2024-01-27T20:55:12.551Z,14.18
2024-01-27T20:57:39.814Z,13.32
2024-01-27T21:00:08.423Z,11.10
2024-01-27T21:02:35.650Z,9.52
2024-01-27T21:05:02.962Z,15.23
2024-01-27T21:07:30.186Z,17.50
2024-01-27T21:09:57.463Z,15.45
2024-01-27T21:12:24.728Z,14.80
2024-01-27T21:14:51.925Z,16.70
2024-01-27T21:17:19.188Z,18.83
2024-01-27T21:19:49.997Z,14.75
2024-01-27T21:22:18.173Z,14.13
2024-01-27T21:24:45.712Z,18.13
2024-01-27T21:27:13.093Z,29.35
2024-01-27T21:29:40.210Z,26.40
2024-01-27T21:32:07.641Z,30.38
2024-01-27T21:34:34.835Z,15.30
2024-01-27T21:37:02.034Z,16.48
2024-01-27T21:39:29.218Z,11.73
2024-01-27T21:41:56.402Z,15.07
2024-01-27T21:44:23.737Z,13.50
2024-01-27T21:46:50.972Z,12.88
2024-01-27T21:49:18.171Z,14.13
2024-01-27T21:51:49.718Z,12.60
2024-01-27T21:54:17.618Z,12.02
2024-01-27T21:56:45.627Z,13.68
2024-01-27T21:59:13.041Z,12.63
2024-01-27T22:01:42.343Z,14.13
2024-01-27T22:04:10.154Z,12.45
2024-01-27T22:06:37.629Z,11.05
2024-01-27T22:09:04.916Z,13.50
2024-01-27T22:11:32.153Z,16.63
2024-01-27T22:13:59.897Z,15.32
2024-01-27T22:16:27.862Z,20.55
2024-01-27T22:18:55.473Z,16.27
2024-01-27T22:21:22.787Z,26.77
2024-01-27T22:23:49.967Z,28.67
2024-01-27T22:26:17.190Z,23.33
2024-01-27T22:28:44.379Z,24.25
2024-01-27T22:31:11.601Z,20.27
2024-01-27T22:33:38.841Z,22.48
2024-01-27T22:36:07.710Z,15.43
2024-01-27T22:38:34.900Z,10.25
2024-01-27T22:41:02.401Z,8.05
2024-01-27T22:43:29.637Z,11.32
2024-01-27T22:45:56.857Z,6.47
2024-01-27T22:48:24.066Z,8.57
2024-01-27T22:50:51.364Z,6.80
2024-01-27T22:53:18.615Z,8.48
2024-01-27T22:55:45.694Z,5.78
2024-01-27T22:58:12.992Z,6.90
2024-01-27T23:00:41.080Z,8.10
2024-01-27T23:03:12.301Z,7.80
2024-01-27T23:05:39.813Z,8.07
2024-01-27T23:08:07.307Z,9.25
2024-01-27T23:10:35.297Z,8.23
2024-01-27T23:13:04.238Z,8.32
2024-01-27T23:15:31.738Z,9.25
2024-01-27T23:17:59.029Z,9.38
2024-01-27T23:20:26.325Z,9.65
2024-01-27T23:22:53.794Z,8.65
2024-01-27T23:25:21.542Z,12.38
2024-01-27T23:27:48.900Z,11.85
2024-01-27T23:30:16.254Z,9.32
2024-01-27T23:32:44.153Z,9.15
2024-01-27T23:35:12.154Z,13.80
2024-01-27T23:37:39.594Z,11.50
2024-01-27T23:40:07.729Z,12.38
2024-01-27T23:42:37.489Z,10.82
2024-01-27T23:45:05.441Z,10.95
2024-01-27T23:47:32.664Z,9.10
2024-01-27T23:50:00.327Z,14.45
2024-01-27T23:52:28.721Z,10.77
2024-01-27T23:54:55.976Z,9.35
2024-01-27T23:57:23.262Z,14.13
2024-01-27T23:59:52.145Z,13.10
